Time;durP1;ratioP1;P1;durP2;ratioP2;P2;SDS_P1;SDS_P2;PMS_P1;PMS_P2;Temp;Humidity;BMP_temperature;BMP_pressure;BME280_temperature;BME280_humidity;BME280_pressure;Samples;Min_cycle;Max_cycle;Signal;HPM_P1;HPM_P2
2021/04/04 00:01:54;;;;;;;7.37;2.90;;;6.80;58.00;;;;;;5035748;28;20560;-44
2021/04/04 00:04:21;;;;;;;6.77;2.90;;;6.70;58.20;;;;;;5041585;28;20494;-44
2021/04/04 00:06:47;;;;;;;6.83;3.83;;;6.70;58.30;;;;;;5040937;28;20459;-44
2021/04/04 00:09:15;;;;;;;7.97;2.90;;;6.70;58.40;;;;;;5058106;28;21025;-44
2021/04/04 00:11:41;;;;;;;5.97;3.23;;;6.60;58.40;;;;;;5041081;28;20446;-44
2021/04/04 00:14:08;;;;;;;5.30;2.90;;;6.60;58.40;;;;;;5039357;28;20498;-44
2021/04/04 00:16:34;;;;;;;4.87;3.40;;;6.60;58.50;;;;;;5037305;28;20486;-44
2021/04/04 00:19:00;;;;;;;5.37;3.03;;;6.60;58.90;;;;;;5040358;28;20465;-44
2021/04/04 00:21:26;;;;;;;4.67;3.17;;;6.50;58.90;;;;;;5037111;28;20478;-44
2021/04/04 00:23:53;;;;;;;4.40;3.20;;;6.60;59.20;;;;;;5042549;28;20434;-44
2021/04/04 00:26:19;;;;;;;6.10;3.23;;;6.60;59.20;;;;;;5038003;28;20455;-44
2021/04/04 00:28:45;;;;;;;5.23;3.40;;;6.60;59.20;;;;;;5036060;28;21018;-44
2021/04/04 00:31:12;;;;;;;5.70;3.27;;;6.50;59.20;;;;;;5035101;28;21322;-44
2021/04/04 00:33:38;;;;;;;7.00;3.37;;;6.50;59.30;;;;;;5035551;28;20462;-44
2021/04/04 00:36:05;;;;;;;6.33;3.20;;;6.50;59.30;;;;;;5043650;28;20489;-44
2021/04/04 00:38:32;;;;;;;8.87;4.13;;;6.50;59.40;;;;;;5039504;28;20454;-43
2021/04/04 00:40:59;;;;;;;4.47;3.57;;;6.40;59.50;;;;;;5041844;28;20482;-44
2021/04/04 00:43:25;;;;;;;6.17;3.40;;;6.40;59.80;;;;;;5053193;28;20806;-44
2021/04/04 00:45:53;;;;;;;4.70;3.53;;;6.40;60.00;;;;;;5040899;28;20459;-43
2021/04/04 00:48:19;;;;;;;5.07;3.90;;;6.40;60.20;;;;;;5050319;28;20465;-44
2021/04/04 00:50:46;;;;;;;7.70;3.97;;;6.40;60.20;;;;;;5044043;28;20542;-44
2021/04/04 00:53:12;;;;;;;6.40;3.47;;;6.40;60.20;;;;;;5046070;28;20823;-44
2021/04/04 00:55:39;;;;;;;6.10;3.40;;;6.30;60.30;;;;;;5043450;28;20478;-44
2021/04/04 00:58:05;;;;;;;6.67;2.90;;;6.30;60.40;;;;;;5043996;28;20463;-44
2021/04/04 01:00:34;;;;;;;6.03;3.33;;;6.30;60.50;;;;;;5049279;28;20490;-43
2021/04/04 01:03:01;;;;;;;6.63;3.70;;;6.30;60.30;;;;;;5049229;28;20487;-44
2021/04/04 01:05:32;;;;;;;4.83;2.97;;;6.30;60.30;;;;;;5043568;28;20828;-44
2021/04/04 01:07:58;;;;;;;5.00;2.97;;;6.20;60.40;;;;;;5044662;28;20829;-44
2021/04/04 01:10:30;;;;;;;10.30;3.37;;;6.20;60.60;;;;;;5038701;28;20548;-44
2021/04/04 01:13:18;;;;;;;8.50;3.27;;;6.20;60.70;;;;;;5039678;28;20466;-44
2021/04/04 01:16:10;;;;;;;6.83;3.47;;;6.20;61.00;;;;;;5042103;28;20458;-44
2021/04/04 01:18:43;;;;;;;5.60;2.83;;;6.10;61.10;;;;;;5039996;28;20455;-45
2021/04/04 01:21:16;;;;;;;5.43;3.00;;;6.10;61.40;;;;;;5046727;28;20482;-44
2021/04/04 01:24:01;;;;;;;5.13;2.80;;;6.10;61.30;;;;;;5041742;28;20450;-44
2021/04/04 01:26:50;;;;;;;5.70;3.53;;;6.10;61.40;;;;;;5044441;28;20465;-44
2021/04/04 01:29:19;;;;;;;12.00;4.37;;;6.10;61.20;;;;;;5049433;28;20435;-44
2021/04/04 01:31:49;;;;;;;7.20;3.40;;;6.10;61.10;;;;;;5038658;28;20462;-44
2021/04/04 01:34:16;;;;;;;4.40;3.20;;;6.10;61.30;;;;;;5044626;28;21030;-44
2021/04/04 01:36:45;;;;;;;6.53;3.50;;;6.10;61.50;;;;;;5044891;28;20470;-44
2021/04/04 01:39:12;;;;;;;6.57;3.40;;;6.10;61.50;;;;;;5043015;28;20470;-44
2021/04/04 01:41:41;;;;;;;4.20;3.40;;;6.10;61.50;;;;;;5040916;28;20576;-44
2021/04/04 01:44:13;;;;;;;8.37;3.90;;;6.00;61.40;;;;;;5045121;28;20971;-44
2021/04/04 01:46:41;;;;;;;4.07;3.30;;;6.00;61.30;;;;;;5046783;28;21071;-44
2021/04/04 01:49:09;;;;;;;7.00;3.37;;;6.00;61.50;;;;;;5039929;28;20663;-44
2021/04/04 01:51:36;;;;;;;6.20;3.37;;;6.00;61.60;;;;;;5037716;28;20463;-44
2021/04/04 01:54:05;;;;;;;9.33;3.47;;;6.00;61.70;;;;;;5059332;28;20460;-44
2021/04/04 01:56:32;;;;;;;4.77;2.63;;;5.90;61.80;;;;;;5044849;28;20463;-44
2021/04/04 01:58:59;;;;;;;7.70;3.73;;;5.90;61.90;;;;;;5041712;28;20464;-44
2021/04/04 02:01:30;;;;;;;6.50;3.60;;;5.90;62.00;;;;;;5044071;28;20510;-44
2021/04/04 02:04:04;;;;;;;4.33;3.17;;;5.90;62.20;;;;;;5044413;28;20617;-44
2021/04/04 02:06:32;;;;;;;3.77;3.00;;;5.90;62.40;;;;;;5041152;28;20962;-44
2021/04/04 02:08:59;;;;;;;6.50;3.83;;;5.90;62.50;;;;;;5042496;28;20459;-44
2021/04/04 02:11:29;;;;;;;9.97;4.37;;;5.90;62.70;;;;;;5042584;28;20469;-44
2021/04/04 02:13:57;;;;;;;4.57;3.73;;;5.90;62.90;;;;;;5039677;28;20455;-44
2021/04/04 02:16:27;;;;;;;5.90;4.00;;;6.00;62.70;;;;;;5047649;28;20482;-44
2021/04/04 02:18:54;;;;;;;5.80;3.73;;;5.90;62.60;;;;;;5037729;28;20464;-44
2021/04/04 02:21:21;;;;;;;13.33;3.60;;;5.90;62.60;;;;;;5040918;28;20494;-44
2021/04/04 02:23:48;;;;;;;10.80;4.07;;;5.90;62.60;;;;;;5039806;28;20455;-44
2021/04/04 02:26:14;;;;;;;6.90;3.53;;;5.80;62.80;;;;;;5043582;28;20463;-44
2021/04/04 02:28:40;;;;;;;5.83;3.37;;;5.80;62.90;;;;;;5040402;28;20462;-44
2021/04/04 02:31:12;;;;;;;6.93;3.50;;;5.80;62.80;;;;;;5043101;28;20467;-44
2021/04/04 02:33:49;;;;;;;7.10;3.27;;;5.80;62.90;;;;;;5044102;28;20461;-44
2021/04/04 02:36:17;;;;;;;7.63;4.37;;;5.80;62.90;;;;;;5040460;28;20492;-44
2021/04/04 02:38:51;;;;;;;7.40;3.53;;;5.70;62.80;;;;;;5048695;28;20466;-44
2021/04/04 02:41:21;;;;;;;6.27;3.87;;;5.70;62.70;;;;;;5042305;28;20505;-44
2021/04/04 02:43:52;;;;;;;5.63;2.90;;;5.70;62.70;;;;;;5045799;28;20465;-44
2021/04/04 02:46:23;;;;;;;6.37;4.40;;;5.70;62.60;;;;;;5039493;28;20481;-44
2021/04/04 02:49:02;;;;;;;6.10;3.20;;;5.70;62.60;;;;;;5040577;28;20451;-44
2021/04/04 02:51:39;;;;;;;6.87;3.37;;;5.60;62.90;;;;;;5043040;28;20473;-44
2021/04/04 02:54:08;;;;;;;7.07;2.97;;;5.60;63.10;;;;;;5042157;28;20462;-44
2021/04/04 02:56:38;;;;;;;6.50;3.40;;;5.60;63.30;;;;;;5059917;28;20459;-44
2021/04/04 02:59:06;;;;;;;7.67;3.77;;;5.60;63.50;;;;;;5044966;28;20840;-44
2021/04/04 03:01:36;;;;;;;4.77;3.30;;;5.50;63.60;;;;;;5042526;28;21096;-44
2021/04/04 03:04:05;;;;;;;4.73;3.13;;;5.60;63.60;;;;;;5040297;28;20474;-43
2021/04/04 03:06:35;;;;;;;6.13;3.73;;;5.50;63.60;;;;;;5043658;28;20477;-44
2021/04/04 03:09:03;;;;;;;6.13;5.53;;;5.50;63.60;;;;;;5041187;28;20826;-44
2021/04/04 03:11:30;;;;;;;6.10;3.80;;;5.50;63.80;;;;;;5040562;28;20566;-44
2021/04/04 03:13:58;;;;;;;4.73;3.40;;;5.50;64.00;;;;;;5039734;28;20454;-44
2021/04/04 03:16:26;;;;;;;6.47;3.50;;;5.50;64.00;;;;;;5038548;28;20471;-44
2021/04/04 03:18:53;;;;;;;4.40;3.10;;;5.50;64.30;;;;;;5042422;28;20462;-44
2021/04/04 03:21:20;;;;;;;5.03;3.50;;;5.50;64.30;;;;;;5042210;28;22435;-44
2021/04/04 03:23:49;;;;;;;5.53;3.30;;;5.50;64.30;;;;;;5043142;28;20817;-44
2021/04/04 03:26:16;;;;;;;7.73;3.60;;;5.50;64.30;;;;;;5037280;28;20455;-44
2021/04/04 03:28:43;;;;;;;5.43;3.60;;;5.50;64.30;;;;;;5041272;28;20458;-44
2021/04/04 03:31:14;;;;;;;7.17;3.77;;;5.40;64.30;;;;;;5041490;28;20854;-44
2021/04/04 03:33:42;;;;;;;3.70;3.10;;;5.40;64.30;;;;;;5035760;28;20562;-44
2021/04/04 03:36:17;;;;;;;4.83;3.37;;;5.40;64.20;;;;;;5040892;28;20512;-44
2021/04/04 03:38:51;;;;;;;9.63;3.90;;;5.40;64.20;;;;;;5039492;28;20967;-44
2021/04/04 03:41:17;;;;;;;9.47;3.10;;;5.40;64.10;;;;;;5039725;28;20478;-43
2021/04/04 03:43:47;;;;;;;5.67;3.33;;;5.30;64.30;;;;;;5040560;28;20461;-44
2021/04/04 03:46:17;;;;;;;8.03;3.73;;;5.30;64.30;;;;;;5044230;28;20549;-44
2021/04/04 03:48:46;;;;;;;6.73;3.80;;;5.30;64.30;;;;;;5039842;28;20458;-44
2021/04/04 03:51:14;;;;;;;6.20;3.93;;;5.20;64.40;;;;;;5037122;28;20823;-44
2021/04/04 03:53:45;;;;;;;10.43;4.00;;;5.20;64.50;;;;;;5059100;28;20467;-44
2021/04/04 03:56:19;;;;;;;5.30;3.90;;;5.20;64.70;;;;;;5037127;28;20467;-44
2021/04/04 03:58:47;;;;;;;6.43;4.20;;;5.20;64.90;;;;;;5043472;28;20871;-44
2021/04/04 04:01:16;;;;;;;10.57;3.97;;;5.20;65.10;;;;;;5037886;28;20490;-44
2021/04/04 04:03:44;;;;;;;4.73;3.33;;;5.20;65.20;;;;;;5041850;28;20985;-44
2021/04/04 04:06:12;;;;;;;4.43;3.90;;;5.10;65.30;;;;;;5045014;28;21006;-44
2021/04/04 04:08:42;;;;;;;9.27;4.27;;;5.10;65.40;;;;;;5038675;28;20462;-45
2021/04/04 04:11:11;;;;;;;4.80;3.97;;;5.10;65.40;;;;;;5044849;28;20829;-45
2021/04/04 04:13:40;;;;;;;7.10;3.97;;;5.10;65.40;;;;;;5043492;28;20475;-44
2021/04/04 04:16:09;;;;;;;9.70;5.17;;;5.10;65.40;;;;;;5041650;28;20919;-44
2021/04/04 04:18:40;;;;;;;10.03;3.53;;;5.10;65.50;;;;;;5046846;28;20475;-44
2021/04/04 04:21:06;;;;;;;5.80;3.70;;;5.10;65.50;;;;;;5039981;28;20478;-44
2021/04/04 04:23:35;;;;;;;6.40;3.30;;;5.10;65.70;;;;;;5028978;28;20458;-44
2021/04/04 04:26:02;;;;;;;4.90;3.37;;;5.10;65.60;;;;;;5037186;28;20565;-45
2021/04/04 04:28:28;;;;;;;5.57;4.67;;;5.00;65.60;;;;;;5039470;28;20951;-44
2021/04/04 04:30:56;;;;;;;5.10;3.60;;;5.00;65.60;;;;;;5038238;28;20458;-44
2021/04/04 04:33:23;;;;;;;4.93;3.20;;;5.00;65.60;;;;;;5040035;28;20470;-45
2021/04/04 04:35:51;;;;;;;9.97;4.77;;;5.00;65.60;;;;;;5037587;28;20534;-43
2021/04/04 04:38:18;;;;;;;5.33;3.97;;;4.90;65.60;;;;;;5039872;28;20455;-44
2021/04/04 04:40:45;;;;;;;9.10;4.73;;;4.90;65.70;;;;;;5038661;28;20908;-44
2021/04/04 04:43:15;;;;;;;11.33;5.43;;;4.90;65.80;;;;;;5035554;28;20462;-44
2021/04/04 04:45:42;;;;;;;8.90;5.90;;;4.90;65.90;;;;;;5036545;28;20459;-44
2021/04/04 04:48:09;;;;;;;9.70;4.90;;;4.90;66.00;;;;;;5038456;28;20455;-44
2021/04/04 04:50:36;;;;;;;7.43;4.37;;;4.90;66.10;;;;;;5038361;28;20459;-44
2021/04/04 04:53:03;;;;;;;8.60;5.03;;;4.80;66.20;;;;;;5043337;28;20446;-44
2021/04/04 04:55:32;;;;;;;11.00;5.53;;;4.80;66.50;;;;;;5041468;28;20989;-44
2021/04/04 04:57:59;;;;;;;8.23;4.27;;;4.80;66.70;;;;;;5036100;28;21035;-44
2021/04/04 05:00:27;;;;;;;9.67;4.50;;;4.80;66.80;;;;;;5037850;28;20459;-44
2021/04/04 05:02:53;;;;;;;9.67;5.40;;;4.80;66.80;;;;;;5039644;28;20459;-44
2021/04/04 05:05:20;;;;;;;7.83;4.70;;;4.80;66.90;;;;;;5043780;28;20462;-44
2021/04/04 05:07:47;;;;;;;6.23;3.90;;;4.70;67.00;;;;;;5043387;28;20959;-44
2021/04/04 05:10:14;;;;;;;11.07;4.80;;;4.70;67.10;;;;;;5042046;28;20554;-44
2021/04/04 05:13:03;;;;;;;6.13;4.03;;;4.70;67.20;;;;;;5040975;28;20462;-44
2021/04/04 05:15:30;;;;;;;6.40;4.27;;;4.70;67.50;;;;;;5041924;28;20714;-44
2021/04/04 05:17:57;;;;;;;9.13;5.53;;;4.80;67.50;;;;;;5039126;28;20470;-44
2021/04/04 05:20:23;;;;;;;8.53;5.37;;;4.70;67.60;;;;;;5036112;28;20474;-44
2021/04/04 05:22:50;;;;;;;9.77;6.20;;;4.70;67.70;;;;;;5044124;28;20504;-44
2021/04/04 05:25:16;;;;;;;4.93;4.20;;;4.80;67.80;;;;;;5036333;28;20841;-44
2021/04/04 05:27:42;;;;;;;8.10;4.43;;;4.80;67.90;;;;;;5039937;28;20467;-44
2021/04/04 05:30:11;;;;;;;8.17;5.23;;;4.80;67.90;;;;;;5038389;28;20459;-44
2021/04/04 05:32:48;;;;;;;10.53;4.00;;;4.80;67.90;;;;;;5038876;28;20860;-44
2021/04/04 05:35:24;;;;;;;9.63;5.00;;;4.80;68.00;;;;;;5042457;28;21094;-44
2021/04/04 05:37:51;;;;;;;8.97;5.10;;;4.90;67.90;;;;;;5033499;28;20466;-44
2021/04/04 05:40:25;;;;;;;6.40;4.70;;;4.90;68.00;;;;;;5041107;28;20865;-44
2021/04/04 05:42:54;;;;;;;5.90;4.23;;;5.00;68.00;;;;;;5043885;28;20697;-44
2021/04/04 05:45:41;;;;;;;7.80;4.40;;;5.00;68.10;;;;;;5046708;28;20814;-44
2021/04/04 05:48:19;;;;;;;13.17;4.20;;;5.00;68.00;;;;;;5043754;28;20447;-45
2021/04/04 05:51:03;;;;;;;10.30;5.90;;;5.00;68.00;;;;;;5045490;28;20472;-44
2021/04/04 05:54:06;;;;;;;11.10;5.13;;;5.00;68.00;;;;;;5043421;28;20457;-44
2021/04/04 05:56:59;;;;;;;7.60;4.90;;;5.10;67.90;;;;;;5047918;28;20909;-44
2021/04/04 05:59:42;;;;;;;8.30;4.53;;;5.20;67.70;;;;;;5038125;28;20501;-44
2021/04/04 06:02:34;;;;;;;7.43;4.50;;;5.20;67.70;;;;;;5041102;28;20517;-44
2021/04/04 06:05:27;;;;;;;15.80;5.50;;;5.20;67.80;;;;;;5038625;28;20803;-44
2021/04/04 06:08:21;;;;;;;9.13;4.90;;;5.30;67.80;;;;;;5046043;28;20447;-44
2021/04/04 06:11:02;;;;;;;15.00;6.90;;;5.30;67.90;;;;;;5045244;28;20448;-44
2021/04/04 06:13:44;;;;;;;12.20;6.30;;;5.40;67.90;;;;;;5046900;28;20978;-44
2021/04/04 06:16:39;;;;;;;11.17;6.10;;;5.50;67.90;;;;;;5046238;28;20935;-43
2021/04/04 06:19:12;;;;;;;13.67;6.47;;;5.50;67.90;;;;;;5045539;28;20443;-43
2021/04/04 06:22:12;;;;;;;10.63;6.57;;;5.70;68.30;;;;;;5042592;28;20482;-43
2021/04/04 06:25:02;;;;;;;10.00;7.20;;;5.80;68.30;;;;;;5041068;28;20530;-43
2021/04/04 06:27:41;;;;;;;10.37;6.20;;;5.90;68.20;;;;;;5042332;28;20453;-43
2021/04/04 06:30:46;;;;;;;14.47;7.03;;;6.00;68.00;;;;;;5043303;28;20473;-43
2021/04/04 06:33:22;;;;;;;14.50;7.67;;;6.10;68.00;;;;;;5041766;28;20454;-43
2021/04/04 06:35:58;;;;;;;15.00;6.53;;;6.30;67.40;;;;;;5042460;28;20976;-43
2021/04/04 06:39:03;;;;;;;8.10;6.67;;;6.30;67.20;;;;;;5043456;28;20534;-43
2021/04/04 06:41:48;;;;;;;15.47;7.10;;;6.40;67.20;;;;;;5045678;28;20487;-43
2021/04/04 06:44:28;;;;;;;13.40;6.87;;;6.50;67.30;;;;;;5042848;28;20819;-43
2021/04/04 06:47:04;;;;;;;16.13;8.47;;;6.50;67.60;;;;;;5043170;28;20630;-43
2021/04/04 06:49:52;;;;;;;17.60;8.60;;;6.60;68.00;;;;;;5045228;28;20455;-43
2021/04/04 06:52:36;;;;;;;17.90;7.70;;;6.70;68.10;;;;;;5046336;28;21015;-43
2021/04/04 06:55:20;;;;;;;14.50;7.63;;;6.70;68.10;;;;;;5042571;28;20460;-43
2021/04/04 06:57:53;;;;;;;12.57;7.10;;;6.70;68.10;;;;;;5039106;28;20968;-43
2021/04/04 07:00:26;;;;;;;19.00;8.60;;;6.80;68.30;;;;;;5039044;28;21221;-43
2021/04/04 07:03:04;;;;;;;16.17;8.07;;;7.00;68.20;;;;;;5040541;28;21013;-43
2021/04/04 07:05:39;;;;;;;14.27;8.90;;;7.10;67.50;;;;;;5041654;28;20467;-43
2021/04/04 07:08:33;;;;;;;17.57;10.20;;;7.20;67.30;;;;;;5042995;28;20453;-43
2021/04/04 07:11:01;;;;;;;17.67;9.33;;;7.30;67.20;;;;;;5042359;28;20850;-43
2021/04/04 07:13:30;;;;;;;13.43;8.93;;;7.40;67.00;;;;;;5040451;28;20467;-43
2021/04/04 07:16:15;;;;;;;14.57;7.97;;;7.50;67.00;;;;;;5036820;28;20876;-42
2021/04/04 07:18:56;;;;;;;15.40;7.93;;;7.60;66.70;;;;;;5038460;28;20462;-43
2021/04/04 07:21:59;;;;;;;13.13;8.63;;;7.70;66.40;;;;;;5041894;28;20482;-43
2021/04/04 07:24:44;;;;;;;14.17;8.30;;;7.80;66.10;;;;;;5040573;28;20460;-43
2021/04/04 07:27:15;;;;;;;18.50;8.67;;;8.10;64.90;;;;;;5040493;28;20464;-43
2021/04/04 07:30:30;;;;;;;19.33;8.70;;;8.20;64.90;;;;;;5040633;28;20454;-43
2021/04/04 07:33:09;;;;;;;11.87;7.33;;;8.30;64.80;;;;;;5029761;28;20956;-43
2021/04/04 07:35:46;;;;;;;21.33;10.10;;;8.40;64.60;;;;;;5042281;28;20476;-43
2021/04/04 07:38:22;;;;;;;15.90;8.80;;;8.60;64.00;;;;;;5040866;28;20468;-43
2021/04/04 07:41:07;;;;;;;17.77;10.43;;;8.80;63.40;;;;;;5037519;28;20856;-43
2021/04/04 07:43:58;;;;;;;15.10;8.70;;;9.00;62.60;;;;;;5042068;28;20466;-43
2021/04/04 07:46:47;;;;;;;16.80;9.60;;;9.20;62.30;;;;;;5042608;28;20486;-43
2021/04/04 07:49:48;;;;;;;16.50;7.80;;;9.40;61.90;;;;;;5039728;28;20462;-44
2021/04/04 07:52:44;;;;;;;13.40;8.80;;;9.60;61.00;;;;;;5039683;28;20965;-43
2021/04/04 07:55:38;;;;;;;20.50;8.37;;;9.80;60.00;;;;;;5042463;28;20489;-43
2021/04/04 07:58:16;;;;;;;16.13;8.93;;;10.00;60.30;;;;;;5039282;28;20462;-42
2021/04/04 08:00:54;;;;;;;12.43;7.57;;;10.20;59.80;;;;;;5045928;28;20458;-43
2021/04/04 08:03:27;;;;;;;17.27;8.80;;;10.40;58.70;;;;;;5041604;28;20470;-43
2021/04/04 08:06:04;;;;;;;15.13;8.50;;;10.60;58.10;;;;;;5046098;28;21034;-43
2021/04/04 08:08:57;;;;;;;14.47;8.00;;;10.80;57.40;;;;;;5044913;28;20514;-43
2021/04/04 08:11:33;;;;;;;15.73;9.33;;;11.00;56.30;;;;;;5039497;28;20467;-44
2021/04/04 08:14:07;;;;;;;19.40;9.53;;;11.10;55.60;;;;;;5043237;28;20456;-44
2021/04/04 08:16:55;;;;;;;12.87;9.20;;;11.30;55.10;;;;;;5044951;28;20862;-46
2021/04/04 08:19:22;;;;;;;19.83;10.60;;;11.40;55.00;;;;;;5048083;28;20943;-46
2021/04/04 08:22:00;;;;;;;16.33;8.80;;;11.60;54.50;;;;;;5038261;28;20481;-44
2021/04/04 08:24:40;;;;;;;16.93;8.80;;;11.70;54.30;;;;;;5042314;28;20446;-44
2021/04/04 08:27:16;;;;;;;15.30;8.43;;;11.80;53.50;;;;;;5037144;28;20491;-44
2021/04/04 08:29:51;;;;;;;16.27;10.20;;;12.00;53.30;;;;;;5040016;28;20509;-44
2021/04/04 08:32:32;;;;;;;15.83;8.80;;;12.20;53.10;;;;;;5037182;28;20446;-44
2021/04/04 08:35:00;;;;;;;14.07;8.63;;;12.40;52.20;;;;;;5040795;28;20455;-44
2021/04/04 08:37:38;;;;;;;22.27;9.67;;;12.60;51.90;;;;;;5037479;28;20553;-44
2021/04/04 08:40:11;;;;;;;14.33;8.70;;;12.70;51.00;;;;;;5038871;28;20465;-44
2021/04/04 08:42:38;;;;;;;12.73;9.30;;;12.90;50.80;;;;;;5041452;28;20482;-44
2021/04/04 08:45:10;;;;;;;12.90;8.47;;;13.20;50.20;;;;;;5040214;28;20465;-44
2021/04/04 08:47:40;;;;;;;13.90;9.30;;;13.40;49.50;;;;;;5038323;28;20479;-44
2021/04/04 08:50:18;;;;;;;16.17;9.17;;;13.60;49.60;;;;;;5038202;28;20948;-44
2021/04/04 08:52:54;;;;;;;17.10;9.00;;;13.80;49.30;;;;;;5039218;28;20457;-44
2021/04/04 08:55:24;;;;;;;18.93;8.43;;;14.10;47.90;;;;;;5054230;28;20459;-45
2021/04/04 08:57:51;;;;;;;16.53;8.17;;;14.30;47.30;;;;;;5035036;28;20455;-45
2021/04/04 09:00:21;;;;;;;14.97;8.77;;;14.60;47.10;;;;;;5037705;28;20460;-44
2021/04/04 09:02:59;;;;;;;18.27;9.23;;;15.00;46.10;;;;;;5032890;28;20490;-44
2021/04/04 09:05:30;;;;;;;13.60;8.40;;;15.30;45.70;;;;;;5029115;28;21074;-44
2021/04/04 09:08:01;;;;;;;18.67;9.30;;;15.40;45.30;;;;;;5038353;28;20493;-44
2021/04/04 09:10:41;;;;;;;16.10;10.40;;;15.60;45.10;;;;;;5029814;28;20482;-44
2021/04/04 09:13:08;;;;;;;15.10;7.73;;;15.80;44.80;;;;;;5043249;28;20538;-44
2021/04/04 09:15:51;;;;;;;19.87;9.20;;;15.80;44.90;;;;;;5024289;28;20458;-44
2021/04/04 09:18:18;;;;;;;15.67;8.40;;;15.60;45.10;;;;;;5043433;28;20957;-45
2021/04/04 09:20:46;;;;;;;18.47;9.90;;;15.20;45.20;;;;;;5042757;28;20550;-44
2021/04/04 09:23:15;;;;;;;15.83;9.30;;;14.90;45.50;;;;;;5036214;28;20767;-44
2021/04/04 09:25:56;;;;;;;13.00;8.83;;;14.80;46.70;;;;;;5038675;28;20460;-44
2021/04/04 09:28:28;;;;;;;15.27;9.00;;;14.80;46.50;;;;;;5042647;28;20458;-45
2021/04/04 09:30:57;;;;;;;16.23;9.70;;;15.10;46.30;;;;;;5039388;28;20450;-44
2021/04/04 09:33:29;;;;;;;18.20;8.43;;;15.40;45.80;;;;;;5041101;28;21010;-44
2021/04/04 09:36:00;;;;;;;16.77;9.63;;;16.00;44.70;;;;;;5056220;28;20465;-44
2021/04/04 09:38:47;;;;;;;17.17;10.77;;;16.30;44.20;;;;;;5040503;28;20459;-44
2021/04/04 09:41:14;;;;;;;16.30;9.10;;;16.60;43.60;;;;;;5039350;28;20454;-44
2021/04/04 09:43:58;;;;;;;18.47;8.20;;;17.00;42.80;;;;;;5046013;28;20557;-44
2021/04/04 09:46:24;;;;;;;16.73;9.00;;;17.30;41.90;;;;;;5039084;28;20461;-44
2021/04/04 09:48:50;;;;;;;17.37;9.63;;;17.30;41.40;;;;;;5038013;28;20451;-44
2021/04/04 09:51:17;;;;;;;14.50;8.33;;;17.50;41.50;;;;;;5043481;28;20957;-44
2021/04/04 09:53:48;;;;;;;19.40;9.77;;;17.70;41.10;;;;;;5058593;28;20498;-44
2021/04/04 09:56:27;;;;;;;17.30;9.43;;;17.70;40.80;;;;;;5039476;28;21171;-44
2021/04/04 09:58:54;;;;;;;13.53;8.57;;;17.50;41.00;;;;;;5041364;28;20457;-44
2021/04/04 10:01:25;;;;;;;12.63;9.80;;;17.10;41.90;;;;;;5046752;28;20482;-44
2021/04/04 10:03:58;;;;;;;17.20;9.40;;;16.70;42.80;;;;;;5044536;28;20454;-44
2021/04/04 10:06:25;;;;;;;12.77;8.50;;;16.60;43.10;;;;;;5042621;28;20533;-44
2021/04/04 10:09:04;;;;;;;14.30;9.57;;;16.40;43.20;;;;;;5045835;28;20453;-44
2021/04/04 10:11:32;;;;;;;12.93;9.07;;;16.40;43.10;;;;;;5041263;28;20442;-44
2021/04/04 10:14:09;;;;;;;20.17;10.67;;;16.50;43.80;;;;;;5042563;28;20812;-44
2021/04/04 10:16:37;;;;;;;17.73;9.03;;;16.90;42.80;;;;;;5038509;28;20492;-44
2021/04/04 10:19:15;;;;;;;17.33;9.20;;;17.40;42.00;;;;;;5047166;28;20953;-44
2021/04/04 10:21:59;;;;;;;17.90;9.40;;;18.00;41.00;;;;;;5042131;28;21047;-44
2021/04/04 10:24:35;;;;;;;15.67;9.90;;;18.40;40.00;;;;;;5046037;28;20438;-44
2021/04/04 10:27:23;;;;;;;17.13;9.97;;;18.40;39.90;;;;;;5039319;28;20446;-44
2021/04/04 10:30:12;;;;;;;15.97;9.70;;;17.90;39.80;;;;;;5046273;28;20824;-44
2021/04/04 10:32:40;;;;;;;15.90;9.93;;;17.40;40.70;;;;;;5042898;28;20454;-44
2021/04/04 10:35:08;;;;;;;24.80;15.27;;;16.80;41.80;;;;;;5048814;28;20450;-44
2021/04/04 10:37:35;;;;;;;22.77;13.80;;;16.30;42.90;;;;;;5042345;28;20458;-45
2021/04/04 10:40:06;;;;;;;21.13;10.87;;;15.90;43.30;;;;;;5044252;28;21025;-44
2021/04/04 10:42:34;;;;;;;15.50;9.80;;;15.60;44.10;;;;;;5042365;28;20526;-43
2021/04/04 10:45:15;;;;;;;19.20;10.90;;;15.40;44.60;;;;;;5048641;28;20702;-44
2021/04/04 10:47:43;;;;;;;13.63;9.10;;;15.10;45.10;;;;;;5028084;28;20468;-43
2021/04/04 10:50:16;;;;;;;14.83;8.40;;;14.90;45.10;;;;;;5039644;28;20481;-43
2021/04/04 10:52:44;;;;;;;16.40;8.60;;;14.80;45.60;;;;;;5041057;28;20524;-43
2021/04/04 10:55:12;;;;;;;18.77;9.60;;;14.70;45.90;;;;;;5043269;28;20952;-43
2021/04/04 10:57:39;;;;;;;14.50;8.67;;;14.60;45.90;;;;;;5040788;28;20825;-43
2021/04/04 11:00:07;;;;;;;19.23;10.20;;;14.60;45.80;;;;;;5038837;28;20522;-43
2021/04/04 11:02:39;;;;;;;16.00;9.37;;;14.50;46.40;;;;;;5034896;28;20499;-43
2021/04/04 11:05:07;;;;;;;18.67;9.00;;;14.40;46.70;;;;;;5031778;28;20456;-43
2021/04/04 11:07:34;;;;;;;17.10;8.73;;;14.30;46.90;;;;;;5046639;28;20459;-43
2021/04/04 11:10:03;;;;;;;16.17;8.87;;;14.30;47.00;;;;;;5042561;28;20447;-43
2021/04/04 11:12:32;;;;;;;15.13;8.90;;;14.60;46.80;;;;;;5052243;28;20966;-46
2021/04/04 11:15:00;;;;;;;20.33;8.90;;;14.90;46.20;;;;;;5037584;28;20458;-43
2021/04/04 11:17:27;;;;;;;18.67;9.00;;;15.00;45.90;;;;;;5039398;28;20482;-43
2021/04/04 11:19:54;;;;;;;14.97;9.37;;;15.00;45.80;;;;;;5033058;28;20831;-43
2021/04/04 11:22:22;;;;;;;15.77;9.30;;;14.80;46.00;;;;;;5042644;28;20486;-43
2021/04/04 11:25:00;;;;;;;19.27;8.10;;;14.70;46.10;;;;;;5040825;28;20453;-45
2021/04/04 11:27:37;;;;;;;16.00;8.20;;;14.60;46.40;;;;;;5040400;28;20565;-45
2021/04/04 11:30:05;;;;;;;17.03;9.03;;;14.60;47.10;;;;;;5040825;28;20810;-45
2021/04/04 11:32:31;;;;;;;18.00;10.10;;;14.50;46.80;;;;;;5039577;28;20482;-45
2021/04/04 11:35:03;;;;;;;14.00;8.00;;;14.50;46.90;;;;;;5039364;28;20763;-45
2021/04/04 11:37:29;;;;;;;17.80;7.77;;;14.60;46.80;;;;;;5036560;28;20481;-45
2021/04/04 11:40:16;;;;;;;18.27;9.47;;;14.70;47.10;;;;;;5035894;28;20815;-45
2021/04/04 11:42:44;;;;;;;18.00;8.73;;;14.80;46.80;;;;;;5047876;28;20495;-43
2021/04/04 11:45:11;;;;;;;19.20;10.10;;;14.90;46.30;;;;;;5043545;28;20458;-43
2021/04/04 11:47:38;;;;;;;14.77;8.30;;;14.90;46.00;;;;;;5036753;28;20826;-43
2021/04/04 11:50:24;;;;;;;13.23;8.73;;;14.90;46.00;;;;;;5042971;28;20803;-43
2021/04/04 11:52:51;;;;;;;15.87;10.43;;;14.80;46.30;;;;;;5039826;28;20459;-43
2021/04/04 11:55:18;;;;;;;15.67;8.50;;;14.70;46.70;;;;;;5039654;28;20450;-43
2021/04/04 11:57:47;;;;;;;15.10;9.13;;;14.60;47.10;;;;;;5042137;28;20514;-42
2021/04/04 12:00:15;;;;;;;17.33;9.60;;;14.50;46.80;;;;;;5042676;28;20455;-43
2021/04/04 12:03:02;;;;;;;17.60;9.80;;;14.50;46.70;;;;;;5042409;28;20497;-43
2021/04/04 12:05:36;;;;;;;18.50;10.17;;;14.50;46.50;;;;;;5039676;28;20550;-43
2021/04/04 12:08:04;;;;;;;19.40;10.80;;;14.50;46.70;;;;;;5042003;28;20458;-43
2021/04/04 12:10:42;;;;;;;23.07;10.80;;;14.40;47.10;;;;;;5043347;28;20463;-43
2021/04/04 12:13:16;;;;;;;16.50;10.07;;;14.50;46.60;;;;;;5038607;28;20455;-45
2021/04/04 12:15:42;;;;;;;18.70;11.13;;;14.60;46.40;;;;;;5039782;28;20534;-45
2021/04/04 12:18:09;;;;;;;19.30;11.70;;;14.80;46.50;;;;;;5045511;28;20466;-45
2021/04/04 12:20:35;;;;;;;20.03;11.03;;;15.00;45.40;;;;;;5038841;28;20451;-45
2021/04/04 12:23:14;;;;;;;17.50;12.53;;;15.10;44.60;;;;;;5043766;28;20562;-45
2021/04/04 12:25:40;;;;;;;19.40;11.20;;;15.20;44.40;;;;;;5040241;28;20447;-45
2021/04/04 12:28:07;;;;;;;18.07;12.27;;;15.20;43.90;;;;;;5046004;28;20447;-45
2021/04/04 12:30:42;;;;;;;21.37;11.40;;;15.20;44.90;;;;;;5044973;28;20991;-45
2021/04/04 12:33:11;;;;;;;20.00;11.63;;;15.10;44.60;;;;;;5038764;28;20439;-45
2021/04/04 12:35:42;;;;;;;24.83;12.33;;;15.20;44.90;;;;;;5035111;28;20550;-45
2021/04/04 12:38:23;;;;;;;20.43;12.80;;;15.30;44.60;;;;;;5043753;28;20452;-45
2021/04/04 12:40:50;;;;;;;22.10;12.93;;;15.30;44.70;;;;;;5042135;28;20507;-45
2021/04/04 12:43:16;;;;;;;16.23;11.67;;;15.30;44.80;;;;;;5039449;28;20479;-45
2021/04/04 12:45:43;;;;;;;22.60;12.50;;;15.30;44.60;;;;;;5047041;28;20454;-45
2021/04/04 12:48:17;;;;;;;22.87;12.27;;;15.40;44.30;;;;;;5036923;28;20453;-45
2021/04/04 12:50:56;;;;;;;21.07;12.80;;;15.50;43.80;;;;;;5044218;28;20472;-45
2021/04/04 12:53:30;;;;;;;20.20;12.50;;;15.50;44.60;;;;;;5045613;28;20541;-42
2021/04/04 12:55:57;;;;;;;22.27;14.30;;;15.50;44.10;;;;;;5044125;28;21025;-42
2021/04/04 12:58:36;;;;;;;17.47;11.97;;;15.60;44.30;;;;;;5052120;28;20816;-45
2021/04/04 13:01:04;;;;;;;22.00;13.87;;;15.70;44.20;;;;;;5042028;28;20493;-42
2021/04/04 13:03:33;;;;;;;27.07;14.50;;;15.60;43.70;;;;;;5048044;28;20474;-42
2021/04/04 13:06:00;;;;;;;21.27;13.30;;;15.70;44.00;;;;;;5046098;28;20520;-45
2021/04/04 13:08:28;;;;;;;23.63;14.90;;;15.80;44.10;;;;;;5042557;28;20467;-44
2021/04/04 13:11:17;;;;;;;23.70;14.17;;;15.80;43.30;;;;;;5041282;28;20641;-45
2021/04/04 13:13:44;;;;;;;20.87;15.77;;;15.80;42.70;;;;;;5048508;28;20928;-42
2021/04/04 13:16:17;;;;;;;22.43;15.20;;;15.80;43.00;;;;;;5046723;28;20488;-45